sensor_id;sensor_type;location;lat;lon;timestamp;P1;durP1;ratioP1;P2;durP2;ratioP2
48987;SDS011;34799;51.440;-2.534;2022-08-25T00:00:57;5.70;;;1.08;;
48987;SDS011;34799;51.440;-2.534;2022-08-25T00:03:33;4.03;;;1.10;;
48987;SDS011;34799;51.440;-2.534;2022-08-25T00:06:28;3.83;;;1.08;;
48987;SDS011;34799;51.440;-2.534;2022-08-25T00:12:12;3.03;;;1.30;;
48987;SDS011;34799;51.440;-2.534;2022-08-25T00:14:53;3.72;;;1.20;;
48987;SDS011;34799;51.440;-2.534;2022-08-25T00:17:37;4.05;;;1.35;;
48987;SDS011;34799;51.440;-2.534;2022-08-25T00:20:31;4.90;;;1.00;;
48987;SDS011;34799;51.440;-2.534;2022-08-25T00:23:28;5.00;;;1.30;;
48987;SDS011;34799;51.440;-2.534;2022-08-25T00:26:27;3.70;;;1.73;;
48987;SDS011;34799;51.440;-2.534;2022-08-25T00:31:53;1.70;;;0.80;;
48987;SDS011;34799;51.440;-2.534;2022-08-25T00:34:53;5.38;;;1.33;;
48987;SDS011;34799;51.440;-2.534;2022-08-25T00:37:31;6.28;;;1.20;;
48987;SDS011;34799;51.440;-2.534;2022-08-25T00:40:20;3.90;;;1.30;;
48987;SDS011;34799;51.440;-2.534;2022-08-25T00:43:05;4.47;;;1.50;;
48987;SDS011;34799;51.440;-2.534;2022-08-25T00:46:13;3.20;;;1.27;;
48987;SDS011;34799;51.440;-2.534;2022-08-25T00:48:56;3.85;;;1.52;;
48987;SDS011;34799;51.440;-2.534;2022-08-25T00:52:31;7.13;;;1.42;;
48987;SDS011;34799;51.440;-2.534;2022-08-25T00:55:38;8.18;;;1.67;;
48987;SDS011;34799;51.440;-2.534;2022-08-25T00:58:22;4.60;;;1.63;;
48987;SDS011;34799;51.440;-2.534;2022-08-25T01:01:27;3.85;;;1.50;;
48987;SDS011;34799;51.440;-2.534;2022-08-25T01:04:23;7.60;;;1.80;;
48987;SDS011;34799;51.440;-2.534;2022-08-25T01:07:31;6.78;;;1.60;;
48987;SDS011;34799;51.440;-2.534;2022-08-25T01:10:12;4.70;;;1.50;;
48987;SDS011;34799;51.440;-2.534;2022-08-25T01:13:28;3.40;;;1.40;;
48987;SDS011;34799;51.440;-2.534;2022-08-25T01:16:36;3.17;;;1.65;;
48987;SDS011;34799;51.440;-2.534;2022-08-25T01:19:29;9.85;;;3.35;;
48987;SDS011;34799;51.440;-2.534;2022-08-25T01:22:29;7.10;;;3.00;;
48987;SDS011;34799;51.440;-2.534;2022-08-25T01:25:22;8.65;;;3.75;;
48987;SDS011;34799;51.440;-2.534;2022-08-25T01:28:15;3.88;;;1.92;;
48987;SDS011;34799;51.440;-2.534;2022-08-25T01:31:13;8.40;;;2.40;;
48987;SDS011;34799;51.440;-2.534;2022-08-25T01:33:57;8.10;;;2.40;;
48987;SDS011;34799;51.440;-2.534;2022-08-25T01:36:36;3.20;;;2.05;;
48987;SDS011;34799;51.440;-2.534;2022-08-25T01:39:25;5.05;;;1.90;;
48987;SDS011;34799;51.440;-2.534;2022-08-25T01:44:58;3.90;;;1.90;;
48987;SDS011;34799;51.440;-2.534;2022-08-25T01:47:37;3.28;;;1.27;;
48987;SDS011;34799;51.440;-2.534;2022-08-25T01:50:11;3.28;;;1.27;;
48987;SDS011;34799;51.440;-2.534;2022-08-25T01:52:50;4.57;;;1.48;;
48987;SDS011;34799;51.440;-2.534;2022-08-25T01:55:43;3.85;;;1.10;;
48987;SDS011;34799;51.440;-2.534;2022-08-25T01:58:28;3.80;;;1.00;;
48987;SDS011;34799;51.440;-2.534;2022-08-25T02:01:15;2.67;;;1.00;;
48987;SDS011;34799;51.440;-2.534;2022-08-25T02:04:06;2.80;;;0.93;;
48987;SDS011;34799;51.440;-2.534;2022-08-25T02:06:42;1.83;;;0.82;;
48987;SDS011;34799;51.440;-2.534;2022-08-25T02:09:21;2.05;;;0.77;;
48987;SDS011;34799;51.440;-2.534;2022-08-25T02:12:23;1.10;;;0.73;;
48987;SDS011;34799;51.440;-2.534;2022-08-25T02:14:56;2.92;;;0.90;;
48987;SDS011;34799;51.440;-2.534;2022-08-25T02:17:49;1.95;;;0.90;;
48987;SDS011;34799;51.440;-2.534;2022-08-25T02:20:36;4.95;;;0.77;;
48987;SDS011;34799;51.440;-2.534;2022-08-25T02:23:27;2.20;;;0.80;;
48987;SDS011;34799;51.440;-2.534;2022-08-25T02:26:12;1.73;;;0.60;;
48987;SDS011;34799;51.440;-2.534;2022-08-25T02:28:52;1.80;;;0.68;;
48987;SDS011;34799;51.440;-2.534;2022-08-25T02:32:01;3.13;;;0.80;;
48987;SDS011;34799;51.440;-2.534;2022-08-25T02:34:46;1.20;;;0.60;;
48987;SDS011;34799;51.440;-2.534;2022-08-25T02:37:23;2.95;;;0.80;;
48987;SDS011;34799;51.440;-2.534;2022-08-25T02:39:55;3.33;;;0.68;;
48987;SDS011;34799;51.440;-2.534;2022-08-25T02:42:46;4.20;;;0.77;;
48987;SDS011;34799;51.440;-2.534;2022-08-25T02:45:49;2.30;;;0.60;;
48987;SDS011;34799;51.440;-2.534;2022-08-25T02:48:42;2.85;;;0.63;;
48987;SDS011;34799;51.440;-2.534;2022-08-25T02:51:35;3.13;;;0.98;;
48987;SDS011;34799;51.440;-2.534;2022-08-25T02:54:07;2.00;;;0.68;;
48987;SDS011;34799;51.440;-2.534;2022-08-25T02:56:57;2.58;;;0.85;;
48987;SDS011;34799;51.440;-2.534;2022-08-25T03:00:26;1.70;;;0.70;;
48987;SDS011;34799;51.440;-2.534;2022-08-25T03:03:39;5.13;;;0.70;;
48987;SDS011;34799;51.440;-2.534;2022-08-25T03:06:29;3.05;;;1.50;;
48987;SDS011;34799;51.440;-2.534;2022-08-25T03:09:12;0.93;;;0.50;;
48987;SDS011;34799;51.440;-2.534;2022-08-25T03:11:46;2.50;;;0.50;;
48987;SDS011;34799;51.440;-2.534;2022-08-25T03:14:25;1.52;;;0.50;;
48987;SDS011;34799;51.440;-2.534;2022-08-25T03:17:05;1.35;;;0.60;;
48987;SDS011;34799;51.440;-2.534;2022-08-25T03:19:42;1.33;;;0.60;;
48987;SDS011;34799;51.440;-2.534;2022-08-25T03:22:46;2.40;;;0.60;;
48987;SDS011;34799;51.440;-2.534;2022-08-25T03:29:36;2.95;;;0.70;;
48987;SDS011;34799;51.440;-2.534;2022-08-25T03:32:17;1.08;;;0.60;;
48987;SDS011;34799;51.440;-2.534;2022-08-25T03:35:05;3.13;;;0.63;;
48987;SDS011;34799;51.440;-2.534;2022-08-25T03:37:58;0.80;;;0.60;;
48987;SDS011;34799;51.440;-2.534;2022-08-25T03:40:44;3.20;;;0.77;;
48987;SDS011;34799;51.440;-2.534;2022-08-25T03:43:28;3.13;;;0.70;;
48987;SDS011;34799;51.440;-2.534;2022-08-25T03:53:04;2.17;;;0.68;;
48987;SDS011;34799;51.440;-2.534;2022-08-25T03:55:52;0.77;;;0.50;;
48987;SDS011;34799;51.440;-2.534;2022-08-25T03:58:34;1.33;;;0.60;;
48987;SDS011;34799;51.440;-2.534;2022-08-25T04:01:30;1.85;;;0.65;;
48987;SDS011;34799;51.440;-2.534;2022-08-25T04:04:06;1.30;;;0.70;;
48987;SDS011;34799;51.440;-2.534;2022-08-25T04:06:42;1.50;;;0.50;;
48987;SDS011;34799;51.440;-2.534;2022-08-25T04:09:16;0.65;;;0.55;;
48987;SDS011;34799;51.440;-2.534;2022-08-25T04:11:51;0.95;;;0.50;;
48987;SDS011;34799;51.440;-2.534;2022-08-25T04:14:38;1.75;;;0.30;;
48987;SDS011;34799;51.440;-2.534;2022-08-25T04:17:35;1.00;;;0.50;;
48987;SDS011;34799;51.440;-2.534;2022-08-25T04:20:05;1.20;;;0.68;;
48987;SDS011;34799;51.440;-2.534;2022-08-25T04:22:47;2.30;;;0.60;;
48987;SDS011;34799;51.440;-2.534;2022-08-25T04:25:28;2.08;;;0.47;;
48987;SDS011;34799;51.440;-2.534;2022-08-25T04:28:16;1.38;;;0.30;;
48987;SDS011;34799;51.440;-2.534;2022-08-25T04:30:47;0.90;;;0.45;;
48987;SDS011;34799;51.440;-2.534;2022-08-25T04:33:30;0.73;;;0.40;;
48987;SDS011;34799;51.440;-2.534;2022-08-25T04:36:02;0.63;;;0.40;;
48987;SDS011;34799;51.440;-2.534;2022-08-25T04:38:36;1.50;;;0.40;;
48987;SDS011;34799;51.440;-2.534;2022-08-25T04:41:14;0.75;;;0.47;;
48987;SDS011;34799;51.440;-2.534;2022-08-25T04:43:51;2.53;;;0.43;;
48987;SDS011;34799;51.440;-2.534;2022-08-25T04:46:31;3.08;;;0.40;;
48987;SDS011;34799;51.440;-2.534;2022-08-25T04:49:15;0.70;;;0.40;;
48987;SDS011;34799;51.440;-2.534;2022-08-25T04:51:55;0.50;;;0.30;;
48987;SDS011;34799;51.440;-2.534;2022-08-25T04:54:45;1.92;;;0.30;;
48987;SDS011;34799;51.440;-2.534;2022-08-25T04:57:26;1.33;;;0.20;;
48987;SDS011;34799;51.440;-2.534;2022-08-25T05:00:19;0.93;;;0.30;;
48987;SDS011;34799;51.440;-2.534;2022-08-25T05:03:06;0.25;;;0.20;;
48987;SDS011;34799;51.440;-2.534;2022-08-25T05:05:52;0.50;;;0.20;;
48987;SDS011;34799;51.440;-2.534;2022-08-25T05:08:21;0.28;;;0.20;;
48987;SDS011;34799;51.440;-2.534;2022-08-25T05:11:18;0.32;;;0.28;;
48987;SDS011;34799;51.440;-2.534;2022-08-25T05:14:06;1.10;;;0.20;;
48987;SDS011;34799;51.440;-2.534;2022-08-25T05:16:47;1.27;;;0.20;;
48987;SDS011;34799;51.440;-2.534;2022-08-25T05:19:27;0.98;;;0.22;;
48987;SDS011;34799;51.440;-2.534;2022-08-25T05:22:16;1.00;;;0.20;;
48987;SDS011;34799;51.440;-2.534;2022-08-25T05:24:51;2.35;;;0.30;;
48987;SDS011;34799;51.440;-2.534;2022-08-25T05:27:40;1.15;;;0.30;;
48987;SDS011;34799;51.440;-2.534;2022-08-25T05:30:38;0.45;;;0.30;;
48987;SDS011;34799;51.440;-2.534;2022-08-25T05:33:29;0.77;;;0.20;;
48987;SDS011;34799;51.440;-2.534;2022-08-25T05:36:10;0.77;;;0.20;;
48987;SDS011;34799;51.440;-2.534;2022-08-25T05:39:06;0.35;;;0.20;;
48987;SDS011;34799;51.440;-2.534;2022-08-25T05:41:45;2.60;;;0.25;;
48987;SDS011;34799;51.440;-2.534;2022-08-25T05:44:53;0.60;;;0.28;;
48987;SDS011;34799;51.440;-2.534;2022-08-25T05:47:52;0.45;;;0.17;;
48987;SDS011;34799;51.440;-2.534;2022-08-25T05:50:25;0.20;;;0.10;;
48987;SDS011;34799;51.440;-2.534;2022-08-25T05:53:33;0.45;;;0.20;;
48987;SDS011;34799;51.440;-2.534;2022-08-25T05:56:23;0.40;;;0.20;;
48987;SDS011;34799;51.440;-2.534;2022-08-25T05:58:56;0.90;;;0.20;;
48987;SDS011;34799;51.440;-2.534;2022-08-25T06:01:50;0.30;;;0.13;;
48987;SDS011;34799;51.440;-2.534;2022-08-25T06:04:48;0.60;;;0.20;;
48987;SDS011;34799;51.440;-2.534;2022-08-25T06:07:52;0.63;;;0.20;;
48987;SDS011;34799;51.440;-2.534;2022-08-25T06:10:55;0.65;;;0.30;;
48987;SDS011;34799;51.440;-2.534;2022-08-25T06:13:50;0.77;;;0.30;;
48987;SDS011;34799;51.440;-2.534;2022-08-25T06:17:30;0.70;;;0.20;;
48987;SDS011;34799;51.440;-2.534;2022-08-25T06:20:30;0.57;;;0.40;;
48987;SDS011;34799;51.440;-2.534;2022-08-25T06:23:24;1.00;;;0.40;;
48987;SDS011;34799;51.440;-2.534;2022-08-25T06:26:35;0.75;;;0.30;;
48987;SDS011;34799;51.440;-2.534;2022-08-25T06:29:55;0.65;;;0.30;;
48987;SDS011;34799;51.440;-2.534;2022-08-25T06:33:05;2.22;;;0.30;;
48987;SDS011;34799;51.440;-2.534;2022-08-25T06:35:51;1.02;;;0.40;;
48987;SDS011;34799;51.440;-2.534;2022-08-25T06:38:33;0.50;;;0.38;;
48987;SDS011;34799;51.440;-2.534;2022-08-25T06:41:22;0.45;;;0.30;;
48987;SDS011;34799;51.440;-2.534;2022-08-25T06:44:09;1.00;;;0.30;;
48987;SDS011;34799;51.440;-2.534;2022-08-25T06:47:07;2.80;;;0.28;;
48987;SDS011;34799;51.440;-2.534;2022-08-25T06:49:45;0.60;;;0.30;;
48987;SDS011;34799;51.440;-2.534;2022-08-25T06:52:32;2.00;;;0.50;;
48987;SDS011;34799;51.440;-2.534;2022-08-25T06:55:18;2.25;;;0.50;;
48987;SDS011;34799;51.440;-2.534;2022-08-25T06:57:59;1.15;;;0.40;;
48987;SDS011;34799;51.440;-2.534;2022-08-25T07:00:40;3.33;;;0.60;;
48987;SDS011;34799;51.440;-2.534;2022-08-25T07:03:31;1.45;;;0.45;;
48987;SDS011;34799;51.440;-2.534;2022-08-25T07:07:11;1.23;;;0.60;;
48987;SDS011;34799;51.440;-2.534;2022-08-25T07:10:17;1.50;;;0.50;;
48987;SDS011;34799;51.440;-2.534;2022-08-25T07:13:14;2.28;;;0.50;;
48987;SDS011;34799;51.440;-2.534;2022-08-25T07:15:53;2.60;;;0.55;;
48987;SDS011;34799;51.440;-2.534;2022-08-25T07:18:56;1.00;;;0.68;;
48987;SDS011;34799;51.440;-2.534;2022-08-25T07:21:40;1.98;;;0.70;;
48987;SDS011;34799;51.440;-2.534;2022-08-25T07:24:31;2.13;;;0.75;;
48987;SDS011;34799;51.440;-2.534;2022-08-25T07:27:18;3.17;;;0.80;;
48987;SDS011;34799;51.440;-2.534;2022-08-25T07:29:56;2.45;;;0.75;;
48987;SDS011;34799;51.440;-2.534;2022-08-25T07:37:00;2.20;;;0.90;;
48987;SDS011;34799;51.440;-2.534;2022-08-25T07:39:52;3.47;;;1.30;;
48987;SDS011;34799;51.440;-2.534;2022-08-25T07:42:43;2.17;;;1.20;;
48987;SDS011;34799;51.440;-2.534;2022-08-25T07:46:05;5.90;;;1.45;;
48987;SDS011;34799;51.440;-2.534;2022-08-25T07:49:11;5.60;;;1.20;;
48987;SDS011;34799;51.440;-2.534;2022-08-25T07:51:57;3.22;;;1.50;;
48987;SDS011;34799;51.440;-2.534;2022-08-25T07:55:04;2.67;;;1.20;;
48987;SDS011;34799;51.440;-2.534;2022-08-25T07:58:12;2.78;;;1.20;;
48987;SDS011;34799;51.440;-2.534;2022-08-25T08:01:17;2.45;;;1.73;;
48987;SDS011;34799;51.440;-2.534;2022-08-25T08:04:51;5.25;;;1.30;;
48987;SDS011;34799;51.440;-2.534;2022-08-25T08:08:13;1.63;;;0.80;;
48987;SDS011;34799;51.440;-2.534;2022-08-25T08:11:25;4.07;;;1.08;;
48987;SDS011;34799;51.440;-2.534;2022-08-25T08:14:12;1.63;;;0.80;;
48987;SDS011;34799;51.440;-2.534;2022-08-25T08:16:42;1.92;;;0.80;;
48987;SDS011;34799;51.440;-2.534;2022-08-25T08:20:34;4.25;;;1.17;;
48987;SDS011;34799;51.440;-2.534;2022-08-25T08:24:03;3.65;;;1.05;;
48987;SDS011;34799;51.440;-2.534;2022-08-25T08:27:02;3.53;;;1.38;;
48987;SDS011;34799;51.440;-2.534;2022-08-25T08:29:58;1.80;;;1.10;;
48987;SDS011;34799;51.440;-2.534;2022-08-25T08:32:36;3.53;;;1.45;;
48987;SDS011;34799;51.440;-2.534;2022-08-25T09:04:34;2.13;;;1.13;;
48987;SDS011;34799;51.440;-2.534;2022-08-25T09:07:23;1.35;;;1.13;;
48987;SDS011;34799;51.440;-2.534;2022-08-25T09:10:34;2.95;;;0.70;;
48987;SDS011;34799;51.440;-2.534;2022-08-25T09:23:06;3.40;;;0.85;;
48987;SDS011;34799;51.440;-2.534;2022-08-25T09:29:15;2.40;;;1.67;;
48987;SDS011;34799;51.440;-2.534;2022-08-25T09:32:31;3.08;;;2.20;;
48987;SDS011;34799;51.440;-2.534;2022-08-25T09:35:41;5.05;;;2.78;;
48987;SDS011;34799;51.440;-2.534;2022-08-25T09:39:04;4.75;;;2.47;;
48987;SDS011;34799;51.440;-2.534;2022-08-25T09:42:00;4.47;;;2.65;;
48987;SDS011;34799;51.440;-2.534;2022-08-25T09:44:57;8.45;;;2.78;;
48987;SDS011;34799;51.440;-2.534;2022-08-25T09:51:00;4.38;;;2.95;;
48987;SDS011;34799;51.440;-2.534;2022-08-25T09:54:31;5.65;;;4.00;;
48987;SDS011;34799;51.440;-2.534;2022-08-25T10:00:44;4.97;;;2.72;;
48987;SDS011;34799;51.440;-2.534;2022-08-25T10:04:48;4.07;;;1.83;;
48987;SDS011;34799;51.440;-2.534;2022-08-25T10:08:02;3.70;;;1.63;;
48987;SDS011;34799;51.440;-2.534;2022-08-25T10:11:07;5.43;;;1.90;;
48987;SDS011;34799;51.440;-2.534;2022-08-25T10:13:59;4.20;;;2.70;;
48987;SDS011;34799;51.440;-2.534;2022-08-25T10:16:44;3.95;;;2.50;;
48987;SDS011;34799;51.440;-2.534;2022-08-25T10:19:30;6.22;;;2.60;;
48987;SDS011;34799;51.440;-2.534;2022-08-25T10:22:04;4.18;;;2.70;;
48987;SDS011;34799;51.440;-2.534;2022-08-25T10:25:26;4.00;;;2.03;;
48987;SDS011;34799;51.440;-2.534;2022-08-25T10:28:39;4.30;;;2.58;;
48987;SDS011;34799;51.440;-2.534;2022-08-25T10:34:54;4.22;;;2.13;;
48987;SDS011;34799;51.440;-2.534;2022-08-25T10:37:45;3.50;;;1.80;;
48987;SDS011;34799;51.440;-2.534;2022-08-25T10:40:51;3.53;;;1.83;;
48987;SDS011;34799;51.440;-2.534;2022-08-25T10:56:00;1.40;;;0.93;;
48987;SDS011;34799;51.440;-2.534;2022-08-25T10:59:11;1.63;;;1.05;;
48987;SDS011;34799;51.440;-2.534;2022-08-25T11:06:59;1.77;;;1.00;;
48987;SDS011;34799;51.440;-2.534;2022-08-25T11:09:46;2.00;;;0.90;;
48987;SDS011;34799;51.440;-2.534;2022-08-25T11:12:58;1.92;;;1.10;;
48987;SDS011;34799;51.440;-2.534;2022-08-25T11:15:56;2.55;;;1.08;;
48987;SDS011;34799;51.440;-2.534;2022-08-25T11:19:27;1.55;;;0.95;;
48987;SDS011;34799;51.440;-2.534;2022-08-25T11:26:21;2.05;;;1.15;;
48987;SDS011;34799;51.440;-2.534;2022-08-25T11:29:22;1.10;;;0.77;;
48987;SDS011;34799;51.440;-2.534;2022-08-25T11:32:19;1.88;;;1.10;;
48987;SDS011;34799;51.440;-2.534;2022-08-25T11:35:49;1.42;;;0.88;;
48987;SDS011;34799;51.440;-2.534;2022-08-25T11:52:40;1.00;;;0.73;;
48987;SDS011;34799;51.440;-2.534;2022-08-25T11:58:39;1.00;;;0.80;;
48987;SDS011;34799;51.440;-2.534;2022-08-25T12:11:40;1.35;;;0.90;;
48987;SDS011;34799;51.440;-2.534;2022-08-25T12:21:54;2.28;;;1.20;;
48987;SDS011;34799;51.440;-2.534;2022-08-25T12:35:21;3.28;;;1.33;;
48987;SDS011;34799;51.440;-2.534;2022-08-25T16:02:54;2.60;;;0.50;;
48987;SDS011;34799;51.440;-2.534;2022-08-25T16:05:39;1.55;;;0.80;;
48987;SDS011;34799;51.440;-2.534;2022-08-25T16:08:35;4.03;;;0.93;;
48987;SDS011;34799;51.440;-2.534;2022-08-25T16:11:19;2.90;;;0.98;;
48987;SDS011;34799;51.440;-2.534;2022-08-25T16:14:37;1.77;;;0.70;;
48987;SDS011;34799;51.440;-2.534;2022-08-25T16:17:19;2.80;;;0.85;;
48987;SDS011;34799;51.440;-2.534;2022-08-25T16:20:22;10.60;;;1.33;;
48987;SDS011;34799;51.440;-2.534;2022-08-25T16:23:22;1.40;;;1.00;;
48987;SDS011;34799;51.440;-2.534;2022-08-25T16:26:16;2.08;;;0.85;;
48987;SDS011;34799;51.440;-2.534;2022-08-25T16:29:17;2.47;;;0.80;;
48987;SDS011;34799;51.440;-2.534;2022-08-25T16:31:54;1.80;;;1.00;;
48987;SDS011;34799;51.440;-2.534;2022-08-25T16:35:12;2.00;;;1.02;;
48987;SDS011;34799;51.440;-2.534;2022-08-25T16:38:14;2.65;;;1.33;;
48987;SDS011;34799;51.440;-2.534;2022-08-25T16:41:07;1.73;;;1.05;;
48987;SDS011;34799;51.440;-2.534;2022-08-25T16:43:52;4.07;;;0.98;;
48987;SDS011;34799;51.440;-2.534;2022-08-25T16:46:29;3.30;;;1.02;;
48987;SDS011;34799;51.440;-2.534;2022-08-25T16:49:13;2.35;;;0.82;;
48987;SDS011;34799;51.440;-2.534;2022-08-25T16:51:57;4.18;;;1.02;;
48987;SDS011;34799;51.440;-2.534;2022-08-25T16:55:09;3.75;;;1.23;;
48987;SDS011;34799;51.440;-2.534;2022-08-25T16:58:17;1.27;;;0.73;;
48987;SDS011;34799;51.440;-2.534;2022-08-25T17:01:09;3.92;;;0.90;;
48987;SDS011;34799;51.440;-2.534;2022-08-25T17:04:23;3.47;;;0.90;;
48987;SDS011;34799;51.440;-2.534;2022-08-25T17:07:15;6.35;;;0.80;;
48987;SDS011;34799;51.440;-2.534;2022-08-25T17:10:16;5.68;;;0.70;;
48987;SDS011;34799;51.440;-2.534;2022-08-25T17:13:25;6.88;;;0.65;;
48987;SDS011;34799;51.440;-2.534;2022-08-25T17:16:38;7.55;;;1.05;;
48987;SDS011;34799;51.440;-2.534;2022-08-25T17:19:37;5.85;;;0.98;;
48987;SDS011;34799;51.440;-2.534;2022-08-25T17:22:32;4.97;;;0.75;;
48987;SDS011;34799;51.440;-2.534;2022-08-25T17:25:47;6.68;;;0.63;;
48987;SDS011;34799;51.440;-2.534;2022-08-25T17:29:19;5.53;;;1.00;;
48987;SDS011;34799;51.440;-2.534;2022-08-25T17:31:54;6.72;;;0.65;;
48987;SDS011;34799;51.440;-2.534;2022-08-25T17:34:58;6.07;;;1.27;;
48987;SDS011;34799;51.440;-2.534;2022-08-25T17:42:07;10.23;;;0.88;;
48987;SDS011;34799;51.440;-2.534;2022-08-25T17:45:22;4.72;;;0.50;;
48987;SDS011;34799;51.440;-2.534;2022-08-25T17:48:35;6.68;;;0.93;;
48987;SDS011;34799;51.440;-2.534;2022-08-25T17:52:14;4.47;;;0.68;;
48987;SDS011;34799;51.440;-2.534;2022-08-25T17:55:54;8.00;;;0.80;;
48987;SDS011;34799;51.440;-2.534;2022-08-25T17:59:05;6.78;;;0.75;;
48987;SDS011;34799;51.440;-2.534;2022-08-25T18:02:02;4.72;;;0.60;;
48987;SDS011;34799;51.440;-2.534;2022-08-25T18:06:03;9.25;;;0.60;;
48987;SDS011;34799;51.440;-2.534;2022-08-25T18:09:00;10.00;;;1.00;;
48987;SDS011;34799;51.440;-2.534;2022-08-25T18:12:33;5.50;;;1.00;;
48987;SDS011;34799;51.440;-2.534;2022-08-25T18:15:31;7.35;;;1.02;;
48987;SDS011;34799;51.440;-2.534;2022-08-25T18:18:28;8.93;;;0.82;;
48987;SDS011;34799;51.440;-2.534;2022-08-25T18:21:45;8.00;;;0.82;;
48987;SDS011;34799;51.440;-2.534;2022-08-25T18:24:45;4.15;;;1.05;;
48987;SDS011;34799;51.440;-2.534;2022-08-25T18:27:56;9.20;;;0.60;;
48987;SDS011;34799;51.440;-2.534;2022-08-25T18:34:14;6.95;;;0.77;;
48987;SDS011;34799;51.440;-2.534;2022-08-25T18:37:11;8.73;;;0.73;;
48987;SDS011;34799;51.440;-2.534;2022-08-25T18:40:24;8.63;;;0.90;;
48987;SDS011;34799;51.440;-2.534;2022-08-25T18:43:05;4.93;;;0.57;;
48987;SDS011;34799;51.440;-2.534;2022-08-25T18:45:55;7.28;;;1.23;;
48987;SDS011;34799;51.440;-2.534;2022-08-25T18:49:35;6.07;;;0.85;;
48987;SDS011;34799;51.440;-2.534;2022-08-25T18:52:36;5.88;;;0.70;;
48987;SDS011;34799;51.440;-2.534;2022-08-25T18:59:37;5.80;;;1.13;;
48987;SDS011;34799;51.440;-2.534;2022-08-25T19:03:03;6.20;;;0.80;;
48987;SDS011;34799;51.440;-2.534;2022-08-25T19:06:36;9.48;;;0.98;;
48987;SDS011;34799;51.440;-2.534;2022-08-25T19:09:08;9.93;;;1.42;;
48987;SDS011;34799;51.440;-2.534;2022-08-25T19:17:06;7.82;;;1.05;;
48987;SDS011;34799;51.440;-2.534;2022-08-25T19:20:00;11.43;;;0.80;;
48987;SDS011;34799;51.440;-2.534;2022-08-25T19:22:54;9.52;;;0.90;;
48987;SDS011;34799;51.440;-2.534;2022-08-25T19:26:12;5.80;;;0.85;;
48987;SDS011;34799;51.440;-2.534;2022-08-25T19:29:10;5.97;;;1.02;;
48987;SDS011;34799;51.440;-2.534;2022-08-25T19:32:10;7.53;;;1.25;;
48987;SDS011;34799;51.440;-2.534;2022-08-25T19:34:55;8.35;;;0.75;;
48987;SDS011;34799;51.440;-2.534;2022-08-25T19:37:46;9.07;;;0.88;;
48987;SDS011;34799;51.440;-2.534;2022-08-25T19:40:52;9.20;;;0.93;;
48987;SDS011;34799;51.440;-2.534;2022-08-25T19:43:32;8.35;;;0.95;;
48987;SDS011;34799;51.440;-2.534;2022-08-25T19:46:53;7.55;;;0.57;;
48987;SDS011;34799;51.440;-2.534;2022-08-25T19:49:50;4.85;;;0.75;;
48987;SDS011;34799;51.440;-2.534;2022-08-25T19:52:55;7.22;;;0.80;;
48987;SDS011;34799;51.440;-2.534;2022-08-25T19:56:09;8.35;;;0.70;;
48987;SDS011;34799;51.440;-2.534;2022-08-25T19:58:43;8.25;;;0.85;;
48987;SDS011;34799;51.440;-2.534;2022-08-25T20:01:45;8.02;;;1.10;;
48987;SDS011;34799;51.440;-2.534;2022-08-25T20:04:36;8.68;;;1.33;;
48987;SDS011;34799;51.440;-2.534;2022-08-25T20:07:15;7.28;;;0.80;;
48987;SDS011;34799;51.440;-2.534;2022-08-25T20:09:59;4.60;;;0.57;;
48987;SDS011;34799;51.440;-2.534;2022-08-25T20:13:09;6.38;;;0.57;;
48987;SDS011;34799;51.440;-2.534;2022-08-25T20:15:53;10.95;;;2.03;;
48987;SDS011;34799;51.440;-2.534;2022-08-25T20:19:19;6.78;;;0.70;;
48987;SDS011;34799;51.440;-2.534;2022-08-25T20:22:15;6.53;;;0.70;;
48987;SDS011;34799;51.440;-2.534;2022-08-25T20:24:58;10.88;;;1.00;;
48987;SDS011;34799;51.440;-2.534;2022-08-25T21:22:02;9.32;;;1.30;;
48987;SDS011;34799;51.440;-2.534;2022-08-25T21:24:56;7.03;;;0.80;;
48987;SDS011;34799;51.440;-2.534;2022-08-25T21:27:53;5.85;;;0.73;;
48987;SDS011;34799;51.440;-2.534;2022-08-25T21:30:42;7.13;;;0.75;;
48987;SDS011;34799;51.440;-2.534;2022-08-25T21:33:38;4.30;;;0.80;;
48987;SDS011;34799;51.440;-2.534;2022-08-25T21:36:08;9.73;;;2.03;;
48987;SDS011;34799;51.440;-2.534;2022-08-25T21:38:58;4.40;;;0.85;;
48987;SDS011;34799;51.440;-2.534;2022-08-25T21:41:31;8.48;;;1.50;;
48987;SDS011;34799;51.440;-2.534;2022-08-25T21:44:11;8.18;;;1.10;;
48987;SDS011;34799;51.440;-2.534;2022-08-25T21:46:42;5.32;;;1.13;;
48987;SDS011;34799;51.440;-2.534;2022-08-25T21:49:21;6.38;;;1.33;;
48987;SDS011;34799;51.440;-2.534;2022-08-25T21:52:30;6.55;;;0.70;;
48987;SDS011;34799;51.440;-2.534;2022-08-25T21:55:12;5.68;;;0.60;;
48987;SDS011;34799;51.440;-2.534;2022-08-25T21:57:44;6.05;;;0.85;;
48987;SDS011;34799;51.440;-2.534;2022-08-25T22:00:30;2.70;;;0.60;;
48987;SDS011;34799;51.440;-2.534;2022-08-25T22:03:16;3.97;;;0.70;;
48987;SDS011;34799;51.440;-2.534;2022-08-25T22:06:09;6.43;;;0.85;;
48987;SDS011;34799;51.440;-2.534;2022-08-25T22:09:06;7.57;;;1.15;;
48987;SDS011;34799;51.440;-2.534;2022-08-25T22:11:48;5.88;;;0.90;;
48987;SDS011;34799;51.440;-2.534;2022-08-25T22:14:35;5.00;;;0.73;;
48987;SDS011;34799;51.440;-2.534;2022-08-25T22:17:22;7.88;;;0.90;;
48987;SDS011;34799;51.440;-2.534;2022-08-25T22:20:09;3.55;;;0.65;;
48987;SDS011;34799;51.440;-2.534;2022-08-25T22:23:01;7.18;;;0.93;;
48987;SDS011;34799;51.440;-2.534;2022-08-25T22:25:36;5.30;;;0.95;;
48987;SDS011;34799;51.440;-2.534;2022-08-25T22:28:12;9.73;;;0.75;;
48987;SDS011;34799;51.440;-2.534;2022-08-25T22:31:07;5.65;;;0.90;;
48987;SDS011;34799;51.440;-2.534;2022-08-25T22:33:43;5.63;;;0.75;;
48987;SDS011;34799;51.440;-2.534;2022-08-25T22:36:25;6.45;;;0.85;;
48987;SDS011;34799;51.440;-2.534;2022-08-25T22:39:15;4.32;;;0.65;;
48987;SDS011;34799;51.440;-2.534;2022-08-25T22:44:23;5.20;;;0.75;;
48987;SDS011;34799;51.440;-2.534;2022-08-25T22:46:57;6.38;;;1.25;;
48987;SDS011;34799;51.440;-2.534;2022-08-25T22:49:34;7.15;;;1.30;;
48987;SDS011;34799;51.440;-2.534;2022-08-25T22:52:15;4.40;;;0.70;;
48987;SDS011;34799;51.440;-2.534;2022-08-25T22:54:50;5.80;;;1.25;;
48987;SDS011;34799;51.440;-2.534;2022-08-25T22:57:31;10.20;;;0.90;;
48987;SDS011;34799;51.440;-2.534;2022-08-25T23:00:15;5.28;;;0.73;;
48987;SDS011;34799;51.440;-2.534;2022-08-25T23:02:59;6.50;;;0.90;;
48987;SDS011;34799;51.440;-2.534;2022-08-25T23:05:57;5.97;;;1.27;;
48987;SDS011;34799;51.440;-2.534;2022-08-25T23:08:39;7.60;;;1.67;;
48987;SDS011;34799;51.440;-2.534;2022-08-25T23:11:47;8.68;;;0.93;;
48987;SDS011;34799;51.440;-2.534;2022-08-25T23:14:29;7.70;;;1.00;;
48987;SDS011;34799;51.440;-2.534;2022-08-25T23:17:18;5.45;;;1.00;;
48987;SDS011;34799;51.440;-2.534;2022-08-25T23:20:16;6.10;;;0.77;;
48987;SDS011;34799;51.440;-2.534;2022-08-25T23:23:20;5.57;;;0.98;;
48987;SDS011;34799;51.440;-2.534;2022-08-25T23:26:14;5.90;;;0.82;;
48987;SDS011;34799;51.440;-2.534;2022-08-25T23:29:22;5.22;;;0.60;;
48987;SDS011;34799;51.440;-2.534;2022-08-25T23:35:01;3.55;;;0.80;;
48987;SDS011;34799;51.440;-2.534;2022-08-25T23:38:07;3.50;;;0.52;;
48987;SDS011;34799;51.440;-2.534;2022-08-25T23:40:56;6.00;;;1.05;;
48987;SDS011;34799;51.440;-2.534;2022-08-25T23:43:52;6.70;;;0.55;;
48987;SDS011;34799;51.440;-2.534;2022-08-25T23:46:47;4.72;;;0.90;;
48987;SDS011;34799;51.440;-2.534;2022-08-25T23:49:46;4.03;;;0.82;;
48987;SDS011;34799;51.440;-2.534;2022-08-25T23:52:32;8.35;;;1.25;;
48987;SDS011;34799;51.440;-2.534;2022-08-25T23:55:43;5.75;;;1.00;;
48987;SDS011;34799;51.440;-2.534;2022-08-25T23:58:51;7.75;;;1.23;;
